Time;durP1;ratioP1;P1;durP2;ratioP2;P2;SDS_P1;SDS_P2;PMS_P1;PMS_P2;Temp;Humidity;BMP_temperature;BMP_pressure;BME280_temperature;BME280_humidity;BME280_pressure;Samples;Min_cycle;Max_cycle;Signal;HPM_P1;HPM_P2
2022/09/06 00:00:00;;;;;;;4.50;4.00;;;22.30;99.40;;;;;;5070338;28;20228;-80
2022/09/06 00:02:33;;;;;;;5.20;4.03;;;22.40;99.10;;;;;;5070714;28;21544;-78
2022/09/06 00:05:00;;;;;;;4.90;3.67;;;22.30;99.60;;;;;;5081941;28;20214;-80
2022/09/06 00:07:28;;;;;;;5.05;4.05;;;22.30;99.40;;;;;;5073058;28;20189;-78
2022/09/06 00:09:56;;;;;;;5.93;4.00;;;22.30;99.90;;;;;;5082559;28;20221;-79
2022/09/06 00:12:24;;;;;;;4.50;3.90;;;22.30;99.80;;;;;;5073585;28;20198;-79
2022/09/06 00:14:52;;;;;;;4.30;3.90;;;22.20;99.90;;;;;;5073753;28;20196;-79
2022/09/06 00:17:19;;;;;;;4.65;4.07;;;22.30;99.40;;;;;;5072424;28;20212;-79
2022/09/06 00:19:48;;;;;;;5.53;4.43;;;22.40;98.90;;;;;;5074516;28;20205;-78
2022/09/06 00:22:16;;;;;;;4.88;4.13;;;22.60;97.80;;;;;;5078325;28;20201;-79
2022/09/06 00:24:43;;;;;;;6.35;3.67;;;22.70;97.10;;;;;;5072079;28;20217;-78
2022/09/06 00:27:15;;;;;;;5.40;3.78;;;22.80;97.10;;;;;;5072775;28;20202;-79
2022/09/06 00:29:43;;;;;;;7.10;4.28;;;22.90;96.30;;;;;;5071549;28;20225;-79
2022/09/06 00:32:10;;;;;;;3.95;3.55;;;22.90;96.30;;;;;;5069769;28;20660;-80
2022/09/06 00:34:38;;;;;;;4.00;3.60;;;22.90;96.40;;;;;;5071726;28;20197;-79
2022/09/06 00:37:07;;;;;;;3.85;3.17;;;22.90;96.40;;;;;;5069078;28;20190;-79
2022/09/06 00:39:34;;;;;;;3.83;3.53;;;22.90;96.20;;;;;;5069426;28;20210;-79
2022/09/06 00:42:02;;;;;;;4.32;3.92;;;22.90;96.00;;;;;;5069357;28;20194;-80
2022/09/06 00:44:29;;;;;;;4.97;4.07;;;22.90;95.70;;;;;;5066968;28;20202;-80
2022/09/06 00:46:57;;;;;;;4.72;4.00;;;22.80;96.30;;;;;;5073006;28;20198;-79
2022/09/06 00:49:27;;;;;;;4.03;3.60;;;22.90;95.90;;;;;;5070151;28;20221;-79
2022/09/06 00:51:57;;;;;;;5.53;3.47;;;22.90;96.00;;;;;;5066349;28;20194;-77
2022/09/06 00:54:27;;;;;;;5.90;3.95;;;22.90;94.60;;;;;;5083410;28;20197;-79
2022/09/06 00:56:55;;;;;;;4.78;3.88;;;22.90;95.80;;;;;;5070081;28;20640;-79
2022/09/06 00:59:25;;;;;;;5.97;3.88;;;22.90;96.20;;;;;;5066153;28;20218;-79
2022/09/06 01:01:52;;;;;;;5.45;4.18;;;22.90;96.20;;;;;;5064630;28;20208;-79
2022/09/06 01:04:20;;;;;;;4.50;4.00;;;22.90;96.10;;;;;;5075189;28;20217;-79
2022/09/06 01:06:57;;;;;;;5.30;4.10;;;22.80;96.90;;;;;;5073358;28;20209;-80
2022/09/06 01:09:39;;;;;;;5.57;4.15;;;22.60;97.60;;;;;;5070707;28;20217;-79
2022/09/06 01:12:37;;;;;;;5.20;3.90;;;22.50;98.10;;;;;;5073613;28;20212;-80
2022/09/06 01:15:23;;;;;;;6.85;4.20;;;22.10;98.60;;;;;;5088499;28;20193;-78
2022/09/06 01:18:01;;;;;;;5.55;4.10;;;22.50;97.40;;;;;;5074647;28;20185;-79
2022/09/06 01:20:42;;;;;;;4.35;3.63;;;22.20;97.80;;;;;;5087779;28;20210;-79
2022/09/06 01:23:47;;;;;;;5.85;4.45;;;21.70;98.60;;;;;;5083725;28;20251;-79
2022/09/06 01:26:38;;;;;;;5.72;4.38;;;21.80;98.90;;;;;;5072618;28;20194;-79
2022/09/06 01:29:13;;;;;;;4.75;3.95;;;22.00;98.10;;;;;;5074017;28;20241;-79
2022/09/06 01:31:48;;;;;;;5.60;4.25;;;22.30;97.10;;;;;;5075005;28;20193;-79
2022/09/06 01:34:24;;;;;;;5.65;3.65;;;22.30;96.20;;;;;;5070247;28;20205;-78
2022/09/06 01:36:56;;;;;;;3.53;3.22;;;22.40;95.20;;;;;;5071464;28;20201;-79
2022/09/06 01:39:27;;;;;;;5.55;3.67;;;22.50;94.90;;;;;;5073759;28;20228;-79
2022/09/06 01:41:57;;;;;;;3.75;2.97;;;22.30;94.40;;;;;;5087830;28;20239;-79
2022/09/06 01:44:29;;;;;;;4.28;3.50;;;22.40;94.40;;;;;;5074282;28;20213;-79
2022/09/06 01:47:03;;;;;;;4.03;3.25;;;22.50;94.10;;;;;;5071985;28;20201;-79
2022/09/06 01:49:40;;;;;;;3.92;3.28;;;22.40;94.10;;;;;;5089486;28;20220;-79
2022/09/06 01:52:17;;;;;;;3.63;3.13;;;22.40;94.40;;;;;;5068541;28;20197;-79
2022/09/06 01:55:05;;;;;;;3.88;3.35;;;22.50;94.40;;;;;;5073087;28;20201;-79
2022/09/06 01:57:48;;;;;;;4.18;3.58;;;22.30;94.80;;;;;;5067503;28;20194;-78
2022/09/06 02:00:19;;;;;;;4.93;3.70;;;22.30;95.10;;;;;;5069932;28;20209;-79
2022/09/06 02:03:01;;;;;;;4.97;3.42;;;22.20;95.50;;;;;;5074718;28;20185;-79
2022/09/06 02:05:34;;;;;;;6.50;3.45;;;22.00;96.30;;;;;;5072792;28;20218;-79
2022/09/06 02:08:08;;;;;;;4.20;3.80;;;22.00;96.70;;;;;;5073935;28;20225;-79
2022/09/06 02:10:41;;;;;;;7.30;4.10;;;22.00;97.70;;;;;;5070307;28;20194;-79
2022/09/06 02:13:10;;;;;;;7.70;4.50;;;22.00;98.20;;;;;;5068339;28;20199;-78
2022/09/06 02:15:43;;;;;;;6.32;4.30;;;21.90;98.70;;;;;;5066107;28;20198;-79
2022/09/06 02:18:14;;;;;;;6.65;4.78;;;22.00;99.30;;;;;;5066585;28;20218;-79
2022/09/06 02:20:45;;;;;;;8.23;4.10;;;22.00;99.40;;;;;;5075648;28;20208;-79
2022/09/06 02:23:16;;;;;;;6.88;4.40;;;22.00;99.70;;;;;;5072479;28;20193;-79
2022/09/06 02:25:51;;;;;;;6.28;4.07;;;22.00;99.90;;;;;;5071308;28;20651;-79
2022/09/06 02:28:19;;;;;;;4.97;4.18;;;22.10;99.50;;;;;;5069055;28;20231;-79
2022/09/06 02:30:51;;;;;;;8.98;4.40;;;22.10;99.70;;;;;;5073146;28;20197;-79
2022/09/06 02:33:21;;;;;;;7.75;4.57;;;22.20;99.90;;;;;;5066977;28;20209;-79
2022/09/06 02:35:53;;;;;;;6.05;3.92;;;22.10;99.90;;;;;;5072357;28;20201;-79
2022/09/06 02:38:23;;;;;;;5.95;4.75;;;22.10;99.90;;;;;;5070693;28;20214;-79
2022/09/06 02:40:53;;;;;;;9.32;4.95;;;22.10;99.90;;;;;;5084790;28;20202;-79
2022/09/06 02:43:21;;;;;;;5.55;3.90;;;22.10;99.90;;;;;;5072190;28;20197;-78
2022/09/06 02:45:50;;;;;;;5.38;4.38;;;22.00;99.90;;;;;;5071088;28;20225;-79
2022/09/06 02:48:17;;;;;;;4.53;4.13;;;22.00;99.90;;;;;;5070979;28;20229;-79
2022/09/06 02:50:45;;;;;;;6.78;4.30;;;22.00;99.90;;;;;;5066992;28;20216;-79
2022/09/06 02:53:13;;;;;;;8.18;4.40;;;22.20;99.90;;;;;;5068617;28;20205;-79
2022/09/06 02:55:41;;;;;;;8.25;5.13;;;22.20;99.90;;;;;;5071267;28;20209;-79
2022/09/06 02:58:11;;;;;;;6.32;4.72;;;22.10;99.90;;;;;;5069062;28;20225;-79
2022/09/06 03:00:38;;;;;;;6.40;4.93;;;21.80;99.90;;;;;;5069394;28;20214;-79
2022/09/06 03:03:08;;;;;;;8.40;5.35;;;21.60;99.90;;;;;;5072244;28;20217;-79
2022/09/06 03:05:35;;;;;;;6.72;4.72;;;21.40;99.90;;;;;;5070755;28;20236;-79
2022/09/06 03:08:03;;;;;;;7.20;4.72;;;21.50;99.90;;;;;;5084026;28;20912;-79
2022/09/06 03:10:30;;;;;;;7.05;5.47;;;21.60;99.90;;;;;;5074475;28;20220;-78
2022/09/06 03:12:58;;;;;;;7.25;4.93;;;21.60;99.90;;;;;;5072635;28;20197;-79
2022/09/06 03:15:25;;;;;;;7.18;5.05;;;21.60;99.90;;;;;;5086085;28;20202;-79
2022/09/06 03:17:58;;;;;;;6.28;5.43;;;21.70;99.90;;;;;;5068077;28;20208;-79
2022/09/06 03:20:27;;;;;;;8.23;5.18;;;21.40;99.90;;;;;;5065452;28;20208;-79
2022/09/06 03:22:55;;;;;;;9.63;5.80;;;21.40;99.90;;;;;;5063740;28;20197;-79
2022/09/06 03:25:22;;;;;;;8.07;5.47;;;21.30;99.90;;;;;;5069367;28;20213;-78
2022/09/06 03:27:50;;;;;;;8.07;5.97;;;21.20;99.90;;;;;;5065915;28;20202;-79
2022/09/06 03:30:18;;;;;;;5.47;4.95;;;21.50;99.90;;;;;;5065061;28;20224;-79
2022/09/06 03:32:45;;;;;;;7.15;5.40;;;21.60;99.90;;;;;;5083235;28;20205;-79
2022/09/06 03:35:14;;;;;;;7.13;5.53;;;21.50;99.90;;;;;;5064742;28;20605;-79
2022/09/06 03:37:43;;;;;;;7.50;5.60;;;21.40;99.90;;;;;;5065528;28;20209;-77
2022/09/06 03:40:11;;;;;;;7.78;5.90;;;21.50;99.90;;;;;;5067281;28;20205;-79
2022/09/06 03:42:39;;;;;;;8.60;5.60;;;21.50;99.90;;;;;;5083704;28;20201;-78
2022/09/06 03:45:07;;;;;;;6.60;5.63;;;21.40;99.90;;;;;;5062282;28;20213;-78
2022/09/06 03:47:35;;;;;;;9.23;6.15;;;21.20;99.90;;;;;;5084098;28;20198;-79
2022/09/06 03:50:02;;;;;;;9.38;6.15;;;21.10;99.90;;;;;;5065983;28;20228;-79
2022/09/06 03:52:30;;;;;;;7.35;5.45;;;21.00;99.90;;;;;;5072869;28;20652;-79
2022/09/06 03:54:59;;;;;;;8.93;5.50;;;21.20;99.90;;;;;;5068721;28;20201;-78
2022/09/06 03:57:26;;;;;;;6.20;4.97;;;21.40;99.90;;;;;;5067431;28;20664;-79
2022/09/06 03:59:54;;;;;;;5.88;5.22;;;21.50;99.90;;;;;;5067017;28;20217;-79
2022/09/06 04:02:21;;;;;;;7.20;4.88;;;21.40;99.90;;;;;;5080631;28;20201;-77
2022/09/06 04:04:49;;;;;;;6.40;5.15;;;21.50;99.90;;;;;;5062756;28;20198;-78
2022/09/06 04:07:16;;;;;;;7.68;5.82;;;21.50;99.90;;;;;;5062096;28;20201;-77
2022/09/06 04:09:44;;;;;;;8.48;5.93;;;21.30;99.90;;;;;;5080674;28;20216;-77
2022/09/06 04:12:12;;;;;;;6.57;5.72;;;21.30;99.90;;;;;;5064069;28;20206;-78
2022/09/06 04:14:40;;;;;;;6.95;6.25;;;21.40;99.90;;;;;;5066365;28;20690;-78
2022/09/06 04:17:07;;;;;;;6.25;5.55;;;21.30;99.90;;;;;;5068469;28;20189;-78
2022/09/06 04:19:35;;;;;;;7.90;5.57;;;21.30;99.90;;;;;;5064021;28;20221;-78
2022/09/06 04:22:02;;;;;;;7.15;5.57;;;21.30;99.90;;;;;;5069118;28;20202;-78
2022/09/06 04:24:30;;;;;;;7.65;5.60;;;21.30;99.90;;;;;;5073149;28;20194;-78
2022/09/06 04:26:57;;;;;;;7.88;5.90;;;21.20;99.90;;;;;;5070035;28;20674;-78
2022/09/06 04:29:26;;;;;;;7.15;6.13;;;21.30;99.90;;;;;;5062945;28;20959;-78
2022/09/06 04:31:53;;;;;;;8.80;5.97;;;21.20;99.90;;;;;;5065688;28;20198;-77
2022/09/06 04:34:21;;;;;;;6.57;5.72;;;20.90;99.90;;;;;;5068727;28;20197;-77
2022/09/06 04:36:48;;;;;;;7.68;6.03;;;20.80;99.90;;;;;;5066060;28;20189;-77
2022/09/06 04:39:16;;;;;;;7.95;5.55;;;20.90;99.90;;;;;;5069222;28;20232;-78
2022/09/06 04:41:43;;;;;;;7.80;4.47;;;20.70;99.90;;;;;;5068386;28;20193;-78
2022/09/06 04:44:11;;;;;;;6.28;5.10;;;20.60;99.90;;;;;;5067321;28;20202;-77
2022/09/06 04:46:41;;;;;;;8.32;5.30;;;20.70;99.90;;;;;;5066062;28;20229;-77
2022/09/06 04:49:09;;;;;;;6.30;5.22;;;20.80;99.90;;;;;;5084239;28;20705;-77
2022/09/06 04:51:38;;;;;;;5.50;4.93;;;20.80;99.90;;;;;;5067363;28;20217;-77
2022/09/06 04:54:05;;;;;;;6.07;4.43;;;20.70;99.90;;;;;;5064509;28;20189;-77
2022/09/06 04:56:33;;;;;;;8.13;5.47;;;20.90;99.90;;;;;;5065523;28;20559;-77
2022/09/06 04:59:01;;;;;;;7.13;4.78;;;20.70;99.90;;;;;;5065981;28;20218;-77
2022/09/06 05:01:29;;;;;;;7.88;5.25;;;20.70;99.90;;;;;;5067996;28;20220;-77
2022/09/06 05:03:58;;;;;;;6.25;5.13;;;20.70;99.90;;;;;;5069932;28;20451;-77
2022/09/06 05:06:26;;;;;;;8.13;4.45;;;20.70;99.90;;;;;;5070784;28;20222;-77
2022/09/06 05:08:53;;;;;;;4.43;3.90;;;20.80;99.90;;;;;;5067439;28;20586;-77
2022/09/06 05:11:21;;;;;;;6.47;4.55;;;20.90;99.90;;;;;;5066364;28;20201;-75
2022/09/06 05:13:49;;;;;;;6.68;4.00;;;20.90;99.90;;;;;;5066470;28;20272;-77
2022/09/06 05:16:17;;;;;;;6.30;4.00;;;21.10;99.90;;;;;;5066697;28;20213;-76
2022/09/06 05:18:44;;;;;;;6.50;4.60;;;20.90;99.90;;;;;;5069257;28;20236;-77
2022/09/06 05:21:13;;;;;;;6.07;4.15;;;21.00;99.90;;;;;;5067579;28;20223;-77
2022/09/06 05:23:40;;;;;;;6.10;4.05;;;20.90;99.90;;;;;;5070061;28;20213;-77
2022/09/06 05:26:14;;;;;;;5.95;4.40;;;21.10;99.90;;;;;;5071894;28;20671;-77
2022/09/06 05:28:41;;;;;;;5.15;4.10;;;21.10;99.90;;;;;;5070830;28;20315;-78
2022/09/06 05:31:10;;;;;;;4.30;3.72;;;21.10;99.90;;;;;;5070235;28;20678;-77
2022/09/06 05:33:38;;;;;;;4.72;3.83;;;21.10;99.90;;;;;;5067754;28;20202;-77
2022/09/06 05:36:14;;;;;;;5.85;3.97;;;21.40;99.90;;;;;;5069401;28;20218;-78
2022/09/06 05:38:41;;;;;;;8.48;3.53;;;21.20;99.90;;;;;;5069755;28;20217;-78
2022/09/06 05:41:38;;;;;;;12.27;3.58;;;21.20;99.90;;;;;;5068706;28;20221;-78
2022/09/06 05:44:29;;;;;;;4.95;4.32;;;21.20;99.90;;;;;;5071757;28;20572;-77
2022/09/06 05:47:33;;;;;;;5.07;3.67;;;21.10;99.90;;;;;;5084135;28;20214;-77
2022/09/06 05:50:00;;;;;;;5.25;3.80;;;21.10;99.90;;;;;;5063146;28;20217;-77
2022/09/06 05:52:29;;;;;;;4.93;3.78;;;21.50;99.90;;;;;;5064021;28;20205;-78
2022/09/06 05:55:44;;;;;;;4.28;3.88;;;21.30;99.90;;;;;;5070216;28;20205;-78
2022/09/06 05:58:18;;;;;;;7.95;3.65;;;21.20;99.90;;;;;;5068892;28;20221;-77
2022/09/06 06:01:04;;;;;;;4.82;3.97;;;21.20;99.90;;;;;;5064526;28;20190;-77
2022/09/06 06:03:32;;;;;;;6.20;4.03;;;21.40;99.90;;;;;;5063337;28;20185;-78
2022/09/06 06:05:59;;;;;;;5.63;3.63;;;21.30;99.90;;;;;;5071145;28;20209;-77
2022/09/06 06:08:28;;;;;;;3.65;3.35;;;21.40;99.90;;;;;;5067135;28;20232;-78
2022/09/06 06:10:59;;;;;;;8.50;3.88;;;21.40;99.90;;;;;;5065928;28;20202;-78
2022/09/06 06:13:28;;;;;;;7.15;4.68;;;21.60;99.90;;;;;;5066415;28;20533;-78
2022/09/06 06:15:56;;;;;;;9.70;5.13;;;21.60;99.90;;;;;;5065107;28;20201;-78
2022/09/06 06:18:23;;;;;;;11.10;5.15;;;21.60;99.90;;;;;;5065038;28;20214;-78
2022/09/06 06:20:51;;;;;;;6.78;5.10;;;21.50;99.90;;;;;;5059881;28;20198;-78
2022/09/06 06:23:19;;;;;;;6.68;4.97;;;21.50;99.90;;;;;;5071214;28;20194;-78
2022/09/06 06:25:47;;;;;;;6.25;4.38;;;21.60;99.90;;;;;;5071441;28;20209;-78
2022/09/06 06:28:15;;;;;;;5.53;3.92;;;21.80;99.90;;;;;;5071184;28;20232;-78
2022/09/06 06:30:42;;;;;;;4.60;3.65;;;21.70;99.90;;;;;;5068398;28;20204;-78
2022/09/06 06:33:10;;;;;;;5.95;3.88;;;21.90;99.90;;;;;;5071190;28;20197;-78
2022/09/06 06:35:37;;;;;;;4.93;3.28;;;22.00;99.90;;;;;;5071051;28;20194;-78
2022/09/06 06:38:05;;;;;;;6.65;3.75;;;22.10;99.90;;;;;;5070544;28;20653;-78
2022/09/06 06:40:32;;;;;;;5.32;3.42;;;22.10;99.90;;;;;;5070600;28;20198;-79
2022/09/06 06:43:01;;;;;;;4.57;3.28;;;22.30;99.90;;;;;;5066470;28;20198;-79
2022/09/06 06:45:29;;;;;;;4.32;3.20;;;22.30;99.90;;;;;;5083508;28;20193;-79
2022/09/06 06:47:56;;;;;;;4.50;3.70;;;22.40;99.90;;;;;;5071393;28;20194;-79
2022/09/06 06:50:23;;;;;;;5.03;3.47;;;22.50;99.90;;;;;;5068545;28;20221;-79
2022/09/06 06:52:54;;;;;;;4.38;3.20;;;22.70;99.90;;;;;;5063037;28;20659;-79
2022/09/06 06:55:22;;;;;;;4.35;3.28;;;22.70;99.90;;;;;;5073071;28;20202;-78
2022/09/06 06:57:49;;;;;;;5.25;3.15;;;22.70;99.90;;;;;;5070465;28;20217;-78
2022/09/06 07:00:19;;;;;;;4.30;3.00;;;22.80;99.90;;;;;;5072439;28;20253;-78
2022/09/06 07:02:47;;;;;;;7.55;3.38;;;22.80;99.90;;;;;;5081846;28;20205;-78
2022/09/06 07:05:14;;;;;;;5.22;3.20;;;22.90;99.90;;;;;;5064714;28;20238;-78
2022/09/06 07:07:42;;;;;;;3.50;3.20;;;22.90;99.90;;;;;;5065227;28;20692;-78
2022/09/06 07:10:10;;;;;;;4.28;3.15;;;23.00;99.90;;;;;;5069867;28;20201;-78
2022/09/06 07:12:38;;;;;;;3.47;3.17;;;23.00;99.90;;;;;;5066169;28;20216;-78
2022/09/06 07:15:06;;;;;;;4.60;3.28;;;23.10;99.90;;;;;;5067603;28;20206;-78
2022/09/06 07:17:35;;;;;;;4.72;3.00;;;23.00;99.90;;;;;;5068718;28;20225;-78
2022/09/06 07:20:03;;;;;;;7.15;3.08;;;23.20;99.90;;;;;;5062354;28;20225;-78
2022/09/06 07:22:30;;;;;;;3.85;3.20;;;23.30;99.90;;;;;;5066409;28;20571;-78
2022/09/06 07:24:58;;;;;;;2.47;2.22;;;23.30;99.90;;;;;;5069823;28;20212;-78
2022/09/06 07:27:26;;;;;;;2.90;2.53;;;23.40;98.80;;;;;;5068506;28;20197;-78
2022/09/06 07:29:53;;;;;;;2.83;2.63;;;23.40;98.70;;;;;;5065077;28;20232;-78
2022/09/06 07:32:21;;;;;;;3.50;2.72;;;23.50;98.50;;;;;;5062969;28;20201;-77
2022/09/06 07:34:53;;;;;;;2.90;2.60;;;23.60;97.70;;;;;;5063755;28;20197;-78
2022/09/06 07:37:21;;;;;;;5.00;2.88;;;23.60;97.70;;;;;;5066546;28;20706;-77
2022/09/06 07:39:48;;;;;;;45.92;15.35;;;23.70;97.80;;;;;;5069890;28;20230;-78
2022/09/06 07:42:16;;;;;;;8.10;3.45;;;23.90;98.00;;;;;;5066062;28;20655;-77
2022/09/06 07:44:43;;;;;;;14.98;7.57;;;23.90;96.50;;;;;;5069142;28;20557;-77
2022/09/06 07:47:12;;;;;;;8.50;3.95;;;23.90;96.10;;;;;;5066252;28;20195;-78
2022/09/06 07:49:58;;;;;;;9.52;4.40;;;23.90;95.60;;;;;;5067834;28;20220;-77
2022/09/06 07:52:26;;;;;;;3.53;2.38;;;24.00;95.70;;;;;;5069580;28;20197;-78
2022/09/06 07:54:55;;;;;;;2.35;2.08;;;24.00;95.10;;;;;;5068000;28;20216;-77
2022/09/06 07:57:23;;;;;;;2.58;2.08;;;24.10;95.00;;;;;;5070762;28;20219;-77
2022/09/06 08:00:10;;;;;;;2.33;2.13;;;24.30;94.90;;;;;;5054304;28;20730;-77
2022/09/06 08:02:41;;;;;;;2.00;1.73;;;24.20;93.80;;;;;;5067355;28;20201;-78
2022/09/06 08:05:10;;;;;;;2.20;2.00;;;24.40;94.10;;;;;;5066613;28;20701;-78
2022/09/06 08:07:38;;;;;;;2.50;1.83;;;24.50;93.20;;;;;;5061266;28;20186;-78
2022/09/06 08:10:06;;;;;;;2.60;2.13;;;24.50;93.00;;;;;;5066197;28;20217;-77
2022/09/06 08:12:34;;;;;;;2.50;2.03;;;24.50;92.80;;;;;;5066171;28;20201;-77
2022/09/06 08:15:01;;;;;;;2.28;1.65;;;24.60;92.70;;;;;;5074136;28;20663;-77
2022/09/06 08:17:33;;;;;;;2.30;2.05;;;24.70;92.20;;;;;;5071286;28;20217;-77
2022/09/06 08:20:01;;;;;;;3.00;1.48;;;24.70;92.20;;;;;;5070931;28;20218;-77
2022/09/06 08:22:33;;;;;;;2.72;1.80;;;24.60;92.10;;;;;;5073383;28;20216;-77
2022/09/06 08:25:01;;;;;;;3.30;2.00;;;24.60;92.00;;;;;;5064741;28;20565;-77
2022/09/06 08:27:28;;;;;;;2.08;1.80;;;24.70;91.70;;;;;;5072599;28;20557;-78
2022/09/06 08:29:56;;;;;;;2.33;1.65;;;24.70;91.50;;;;;;5072844;28;20567;-78
2022/09/06 08:32:23;;;;;;;2.25;1.70;;;24.70;91.70;;;;;;5069698;28;20202;-77
2022/09/06 08:34:51;;;;;;;2.13;1.77;;;24.80;91.60;;;;;;5071552;28;20223;-77
2022/09/06 08:37:18;;;;;;;2.85;1.70;;;24.90;91.10;;;;;;5068134;28;20209;-77
2022/09/06 08:39:47;;;;;;;3.35;2.40;;;25.00;90.70;;;;;;5072972;28;20225;-77
2022/09/06 08:42:14;;;;;;;1.75;1.58;;;25.00;90.80;;;;;;5072489;28;20212;-77
2022/09/06 08:44:47;;;;;;;3.50;1.70;;;25.10;90.60;;;;;;5072665;28;20202;-77
2022/09/06 08:47:16;;;;;;;1.73;1.55;;;25.10;90.40;;;;;;5073446;28;20205;-77
2022/09/06 08:49:45;;;;;;;2.47;1.85;;;25.30;90.40;;;;;;5068032;28;20217;-77
2022/09/06 08:52:36;;;;;;;1.80;1.23;;;25.30;90.30;;;;;;5072653;28;20559;-77
2022/09/06 08:55:30;;;;;;;2.53;1.80;;;25.20;90.10;;;;;;5072289;28;20205;-77
2022/09/06 08:58:18;;;;;;;2.45;1.42;;;25.10;90.10;;;;;;5070196;28;20236;-77
2022/09/06 09:00:57;;;;;;;2.00;1.30;;;25.20;90.20;;;;;;5087959;28;20678;-77
2022/09/06 09:03:30;;;;;;;2.47;1.73;;;25.30;90.00;;;;;;5069253;28;20214;-77
2022/09/06 09:05:58;;;;;;;2.25;1.35;;;25.30;90.00;;;;;;5068592;28;20200;-77
2022/09/06 09:08:32;;;;;;;1.50;1.40;;;25.40;89.70;;;;;;5072968;28;20225;-77
2022/09/06 09:11:03;;;;;;;3.40;1.55;;;25.60;89.20;;;;;;5073890;28;20189;-77
2022/09/06 09:13:35;;;;;;;1.60;1.50;;;25.70;88.70;;;;;;5073844;28;20211;-77
2022/09/06 09:16:03;;;;;;;1.85;1.55;;;25.80;86.90;;;;;;5071683;28;20210;-77
2022/09/06 09:18:34;;;;;;;1.92;1.60;;;25.70;86.60;;;;;;5087818;28;20590;-78
2022/09/06 09:21:02;;;;;;;2.30;1.52;;;25.80;86.60;;;;;;5069783;28;20562;-77
2022/09/06 09:23:30;;;;;;;1.70;1.58;;;25.70;86.20;;;;;;5073165;28;20201;-77
2022/09/06 09:26:03;;;;;;;1.67;1.40;;;25.70;86.00;;;;;;5068797;28;20209;-77
2022/09/06 09:28:31;;;;;;;2.75;1.30;;;25.80;84.80;;;;;;5062144;28;20232;-80
2022/09/06 09:30:59;;;;;;;2.85;1.25;;;25.90;84.80;;;;;;5063505;28;20209;-79
2022/09/06 09:33:32;;;;;;;1.25;1.15;;;26.00;83.50;;;;;;5070081;28;20206;-77
2022/09/06 09:36:01;;;;;;;1.85;1.45;;;26.00;83.40;;;;;;5072009;28;20194;-78
2022/09/06 09:38:34;;;;;;;2.30;1.50;;;25.90;83.40;;;;;;5086008;28;20225;-78
2022/09/06 09:41:06;;;;;;;1.45;1.30;;;26.00;83.40;;;;;;5072583;28;20198;-79
2022/09/06 09:43:36;;;;;;;3.83;1.40;;;26.20;82.50;;;;;;5064500;28;20189;-78
2022/09/06 09:46:16;;;;;;;7.43;4.28;;;26.00;81.60;;;;;;5074379;28;20197;-78
2022/09/06 09:48:58;;;;;;;1.65;1.23;;;26.10;82.50;;;;;;5072105;28;20209;-78
2022/09/06 09:51:37;;;;;;;1.55;1.10;;;26.30;81.40;;;;;;5069162;28;20201;-78
2022/09/06 09:54:07;;;;;;;1.30;1.15;;;26.20;80.10;;;;;;5062268;28;20194;-78
2022/09/06 09:56:44;;;;;;;2.50;1.30;;;26.20;79.30;;;;;;5064314;28;20694;-78
2022/09/06 09:59:23;;;;;;;1.20;1.10;;;26.00;79.80;;;;;;5072233;28;20217;-78
2022/09/06 10:01:54;;;;;;;2.25;0.90;;;26.10;79.00;;;;;;5073635;28;20181;-78
2022/09/06 10:04:48;;;;;;;1.73;1.27;;;26.30;79.00;;;;;;5074007;28;20302;-78
2022/09/06 10:07:18;;;;;;;2.50;1.10;;;26.40;77.50;;;;;;5062149;28;20185;-78
2022/09/06 10:10:13;;;;;;;1.75;1.20;;;26.40;77.40;;;;;;5078209;28;20229;-78
2022/09/06 10:13:14;;;;;;;1.23;0.85;;;26.40;77.40;;;;;;5071728;28;20201;-78
2022/09/06 10:15:42;;;;;;;2.25;1.20;;;26.50;77.20;;;;;;5072141;28;20212;-79
2022/09/06 10:18:17;;;;;;;1.20;1.00;;;26.70;76.80;;;;;;5070724;28;20221;-79
2022/09/06 10:20:57;;;;;;;1.42;1.05;;;26.80;75.90;;;;;;5072130;28;20204;-79
2022/09/06 10:24:03;;;;;;;1.63;1.30;;;27.00;74.50;;;;;;5068506;28;20197;-78
2022/09/06 10:26:42;;;;;;;1.75;1.10;;;27.10;74.70;;;;;;5045441;28;20689;-79
2022/09/06 10:29:13;;;;;;;2.00;1.30;;;26.90;75.10;;;;;;5078750;28;20236;-78
2022/09/06 10:32:26;;;;;;;2.03;1.15;;;26.60;75.00;;;;;;5080153;28;20200;-78
2022/09/06 10:35:16;;;;;;;1.50;1.10;;;26.80;75.50;;;;;;5073657;28;20202;-78
2022/09/06 10:38:00;;;;;;;2.65;1.20;;;27.00;73.90;;;;;;5073565;28;20205;-79
2022/09/06 10:40:33;;;;;;;1.23;1.10;;;27.20;73.40;;;;;;5069726;28;20205;-78
2022/09/06 10:43:07;;;;;;;2.70;1.40;;;27.40;73.10;;;;;;5074447;28;20206;-79
2022/09/06 10:45:46;;;;;;;1.67;1.58;;;27.50;72.60;;;;;;5068400;28;20757;-80
2022/09/06 10:48:20;;;;;;;1.83;1.33;;;27.70;72.10;;;;;;5067790;28;20559;-80
2022/09/06 10:50:54;;;;;;;1.35;1.20;;;27.50;70.80;;;;;;5070043;28;20201;-80
2022/09/06 10:53:34;;;;;;;2.15;1.27;;;27.50;70.30;;;;;;5072776;28;20208;-80
2022/09/06 10:56:08;;;;;;;1.33;1.23;;;27.60;69.70;;;;;;5072973;28;20193;-80
2022/09/06 10:58:45;;;;;;;2.33;1.20;;;27.60;69.70;;;;;;5071981;28;20213;-80
2022/09/06 11:01:22;;;;;;;2.13;1.38;;;27.70;68.90;;;;;;5072089;28;20197;-80
2022/09/06 11:03:51;;;;;;;1.63;1.30;;;27.80;68.90;;;;;;5069268;28;20193;-80
2022/09/06 11:06:21;;;;;;;1.35;1.25;;;27.90;67.60;;;;;;5076533;28;20210;-80
2022/09/06 11:08:54;;;;;;;1.15;0.93;;;27.90;67.50;;;;;;5071641;28;20585;-80
2022/09/06 11:11:34;;;;;;;1.30;1.20;;;28.10;66.70;;;;;;5068516;28;20198;-80
2022/09/06 11:14:04;;;;;;;2.15;1.27;;;28.10;66.00;;;;;;5071779;28;20197;-80
2022/09/06 11:16:40;;;;;;;1.58;1.15;;;28.30;66.60;;;;;;5069695;28;20198;-80
2022/09/06 11:19:16;;;;;;;1.13;1.05;;;28.40;65.20;;;;;;5071893;28;20209;-80
2022/09/06 11:22:00;;;;;;;1.15;1.00;;;28.60;64.60;;;;;;5071080;28;20204;-81
2022/09/06 11:24:44;;;;;;;1.75;1.25;;;28.70;63.90;;;;;;5068632;28;20200;-81
2022/09/06 11:27:16;;;;;;;1.55;1.30;;;28.90;63.30;;;;;;5070792;28;20198;-81
2022/09/06 11:29:51;;;;;;;2.17;1.20;;;28.80;62.00;;;;;;5070650;28;20229;-80
2022/09/06 11:32:32;;;;;;;2.67;1.30;;;28.90;61.80;;;;;;5069208;28;20201;-80
2022/09/06 11:35:03;;;;;;;1.50;1.40;;;28.90;61.00;;;;;;5072174;28;20193;-80
2022/09/06 11:37:35;;;;;;;2.17;1.30;;;28.90;61.10;;;;;;5068061;28;20224;-80
2022/09/06 11:40:14;;;;;;;1.95;1.20;;;29.00;60.50;;;;;;5071202;28;20205;-80
2022/09/06 11:43:09;;;;;;;2.03;1.30;;;29.20;60.10;;;;;;5071021;28;20197;-80
2022/09/06 11:45:43;;;;;;;3.30;1.20;;;29.00;59.30;;;;;;5068842;28;20202;-80
2022/09/06 11:48:36;;;;;;;1.63;1.40;;;29.20;59.00;;;;;;5075785;28;20216;-80
2022/09/06 11:51:09;;;;;;;2.13;1.30;;;29.20;57.60;;;;;;5082749;28;20206;-81
2022/09/06 11:54:11;;;;;;;2.20;1.40;;;29.40;58.20;;;;;;5066240;28;20559;-80
2022/09/06 11:56:51;;;;;;;2.00;1.27;;;29.40;57.60;;;;;;5065223;28;20198;-79
2022/09/06 11:59:32;;;;;;;2.70;1.42;;;29.40;56.80;;;;;;5061911;28;20224;-80
2022/09/06 12:02:01;;;;;;;1.70;1.23;;;29.50;57.30;;;;;;5068888;28;20551;-80
2022/09/06 12:05:08;;;;;;;2.00;1.40;;;29.60;57.00;;;;;;5069498;28;20566;-80
2022/09/06 12:07:40;;;;;;;1.85;1.33;;;29.70;56.50;;;;;;5071290;28;20201;-80
2022/09/06 12:10:41;;;;;;;1.98;1.48;;;30.00;55.90;;;;;;5071472;28;20681;-80
2022/09/06 12:13:46;;;;;;;2.58;1.10;;;30.20;54.70;;;;;;5070022;28;20671;-80
2022/09/06 12:16:15;;;;;;;1.20;1.10;;;29.90;53.60;;;;;;5066214;28;20212;-80
2022/09/06 12:18:58;;;;;;;2.70;1.30;;;29.90;53.10;;;;;;5071891;28;20221;-79
2022/09/06 12:21:46;;;;;;;1.88;1.30;;;29.80;53.80;;;;;;5068534;28;20202;-79
2022/09/06 12:24:55;;;;;;;3.30;1.13;;;30.00;53.40;;;;;;5065857;28;20643;-80
2022/09/06 12:27:26;;;;;;;1.63;1.45;;;30.20;52.40;;;;;;5061525;28;20198;-80
2022/09/06 12:29:58;;;;;;;3.88;1.35;;;30.30;52.90;;;;;;5072014;28;20225;-79
2022/09/06 12:32:29;;;;;;;1.77;1.58;;;30.50;52.70;;;;;;5070186;28;20672;-80
2022/09/06 12:35:00;;;;;;;1.63;1.35;;;30.40;52.40;;;;;;5071359;28;20213;-79
2022/09/06 12:37:33;;;;;;;2.30;1.58;;;29.90;53.40;;;;;;5071805;28;20193;-80
2022/09/06 12:40:00;;;;;;;2.20;1.40;;;30.40;53.10;;;;;;5066631;28;20229;-80
2022/09/06 12:42:31;;;;;;;1.70;1.17;;;30.70;52.10;;;;;;5066502;28;20691;-80
2022/09/06 12:45:04;;;;;;;2.45;1.40;;;31.10;51.60;;;;;;5069514;28;20205;-80
2022/09/06 12:47:45;;;;;;;2.20;1.35;;;31.00;50.30;;;;;;5069653;28;20212;-80
2022/09/06 12:50:30;;;;;;;2.55;1.42;;;30.60;51.40;;;;;;5067417;28;20686;-79
2022/09/06 12:53:23;;;;;;;2.38;1.50;;;30.60;51.60;;;;;;5061712;28;20191;-80
2022/09/06 12:56:03;;;;;;;2.08;1.30;;;31.00;51.30;;;;;;5070428;28;20216;-80
2022/09/06 12:58:33;;;;;;;2.40;1.50;;;31.40;50.60;;;;;;5068557;28;20222;-79
2022/09/06 13:01:07;;;;;;;3.88;1.60;;;31.50;49.60;;;;;;5069601;28;20193;-80
2022/09/06 13:03:48;;;;;;;2.78;1.60;;;31.50;49.50;;;;;;5075579;28;20189;-80
2022/09/06 13:06:30;;;;;;;2.83;1.63;;;31.70;48.90;;;;;;5069668;28;20209;-80
2022/09/06 13:09:01;;;;;;;4.57;1.77;;;31.80;48.20;;;;;;5074113;28;20214;-80
2022/09/06 13:11:33;;;;;;;3.85;1.77;;;32.10;48.20;;;;;;5072181;28;20190;-80
2022/09/06 13:14:09;;;;;;;3.25;1.60;;;32.20;47.40;;;;;;5069528;28;20198;-80